createdAt,value
2022-12-09T00:01:09.747Z,3.12
2022-12-09T00:03:39.744Z,3.15
2022-12-09T00:06:09.543Z,3.09
2022-12-09T00:08:37.837Z,3.23
2022-12-09T00:11:07.140Z,3.20
2022-12-09T00:13:35.577Z,3.23
2022-12-09T00:16:07.371Z,3.28
2022-12-09T00:18:36.220Z,3.20
2022-12-09T00:21:15.099Z,3.25
2022-12-09T00:23:43.073Z,3.23
2022-12-09T00:26:11.273Z,3.15
2022-12-09T00:28:39.497Z,3.12
2022-12-09T00:31:08.780Z,3.21
2022-12-09T00:33:37.169Z,3.27
2022-12-09T00:36:07.262Z,3.32
2022-12-09T00:38:37.741Z,3.38
2022-12-09T00:41:06.655Z,3.13
2022-12-09T00:43:35.289Z,3.24
2022-12-09T00:46:03.346Z,3.31
2022-12-09T00:48:31.590Z,3.25
2022-12-09T00:50:59.944Z,3.32
2022-12-09T00:53:28.175Z,3.22
2022-12-09T00:55:57.736Z,3.16
2022-12-09T00:58:26.228Z,3.36
2022-12-09T01:00:54.781Z,2.84
2022-12-09T01:03:24.000Z,3.31
2022-12-09T01:05:52.161Z,3.25
2022-12-09T01:08:20.403Z,3.30
2022-12-09T01:10:49.104Z,3.29
2022-12-09T01:13:18.550Z,3.35
2022-12-09T01:15:46.877Z,3.30
2022-12-09T01:18:15.043Z,3.27
2022-12-09T01:20:43.242Z,3.24
2022-12-09T01:23:11.963Z,3.18
2022-12-09T01:25:40.039Z,3.20
2022-12-09T01:28:08.046Z,3.39
2022-12-09T01:30:37.439Z,3.39
2022-12-09T01:33:06.884Z,3.29
2022-12-09T01:35:34.778Z,3.24
2022-12-09T01:38:02.705Z,3.09
2022-12-09T01:40:30.641Z,3.09
2022-12-09T01:42:58.542Z,3.05
2022-12-09T01:45:46.318Z,3.10
2022-12-09T01:48:16.691Z,3.18
2022-12-09T01:50:48.269Z,3.14
2022-12-09T01:53:18.113Z,3.24
2022-12-09T01:55:47.440Z,3.14
2022-12-09T01:58:17.296Z,3.17
2022-12-09T02:00:48.297Z,3.19
2022-12-09T02:03:16.937Z,2.96
2022-12-09T02:05:45.718Z,3.07
2022-12-09T02:08:15.160Z,3.05
2022-12-09T02:10:55.211Z,3.09
2022-12-09T02:13:34.460Z,2.90
2022-12-09T02:16:08.818Z,3.07
2022-12-09T02:18:41.042Z,3.03
2022-12-09T02:21:13.119Z,2.85
2022-12-09T02:23:44.725Z,2.82
2022-12-09T02:26:23.705Z,2.83
2022-12-09T02:29:16.107Z,2.96
2022-12-09T02:32:14.617Z,2.80
2022-12-09T02:34:47.484Z,2.76
2022-12-09T02:37:20.961Z,2.61
2022-12-09T02:39:57.882Z,2.86
2022-12-09T02:42:31.797Z,2.64
2022-12-09T02:45:03.791Z,2.72
2022-12-09T02:47:34.114Z,2.57
2022-12-09T02:50:10.981Z,2.70
2022-12-09T02:52:40.569Z,2.78
2022-12-09T02:55:11.192Z,2.77
2022-12-09T02:57:41.801Z,2.68
2022-12-09T03:00:15.852Z,2.61
2022-12-09T03:02:46.905Z,2.53
2022-12-09T03:05:23.300Z,2.59
2022-12-09T03:08:01.429Z,2.65
2022-12-09T03:10:38.034Z,2.60
2022-12-09T03:13:11.339Z,2.84
2022-12-09T03:15:45.387Z,2.52
2022-12-09T03:18:16.341Z,2.58
2022-12-09T03:20:48.539Z,2.68
2022-12-09T03:23:19.261Z,2.69
2022-12-09T03:25:50.961Z,2.73
2022-12-09T03:28:24.414Z,2.76
2022-12-09T03:30:54.663Z,2.68
2022-12-09T03:33:25.687Z,2.71
2022-12-09T03:35:58.321Z,2.61
2022-12-09T03:38:29.935Z,2.82
2022-12-09T03:41:03.449Z,2.72
2022-12-09T03:43:36.560Z,2.70
2022-12-09T03:46:04.798Z,2.60
2022-12-09T03:48:33.521Z,2.54
2022-12-09T03:51:09.930Z,2.46
2022-12-09T03:53:44.272Z,2.62
2022-12-09T03:56:19.704Z,2.78
2022-12-09T03:58:49.844Z,2.70
2022-12-09T04:01:19.300Z,2.61
2022-12-09T04:03:50.827Z,2.61
2022-12-09T04:06:20.830Z,2.66
2022-12-09T04:08:49.442Z,2.64
2022-12-09T04:11:17.745Z,2.69
2022-12-09T04:13:45.720Z,2.59
2022-12-09T04:16:14.043Z,2.57
2022-12-09T04:18:42.493Z,2.75
2022-12-09T04:21:13.229Z,2.60
2022-12-09T04:23:43.741Z,2.62
2022-12-09T04:26:15.586Z,2.58
2022-12-09T04:28:43.607Z,2.60
2022-12-09T04:31:13.078Z,2.56
2022-12-09T04:33:41.933Z,2.48
2022-12-09T04:36:12.601Z,2.50
2022-12-09T04:38:40.848Z,2.46
2022-12-09T04:41:11.110Z,2.39
2022-12-09T04:43:39.516Z,2.35
2022-12-09T04:46:09.614Z,2.37
2022-12-09T04:48:45.221Z,2.27
2022-12-09T04:51:15.809Z,2.29
2022-12-09T04:53:44.502Z,2.32
2022-12-09T04:56:15.872Z,2.39
2022-12-09T04:58:44.921Z,2.35
2022-12-09T05:01:15.650Z,2.34
2022-12-09T05:03:45.281Z,2.36
2022-12-09T05:06:15.691Z,2.34
2022-12-09T05:08:44.122Z,2.46
2022-12-09T05:11:15.582Z,2.47
2022-12-09T05:13:43.721Z,2.53
2022-12-09T05:16:16.263Z,2.63
2022-12-09T05:18:45.940Z,2.58
2022-12-09T05:21:16.058Z,2.55
2022-12-09T05:23:45.028Z,2.58
2022-12-09T05:26:16.641Z,2.61
2022-12-09T05:28:45.017Z,2.48
2022-12-09T05:31:15.549Z,2.37
2022-12-09T05:33:44.130Z,2.40
2022-12-09T05:36:13.724Z,2.35
2022-12-09T05:38:42.416Z,2.37
2022-12-09T05:41:10.469Z,2.44
2022-12-09T05:43:41.074Z,2.48
2022-12-09T05:46:10.013Z,2.48
2022-12-09T05:48:38.460Z,2.44
2022-12-09T05:51:08.692Z,2.33
2022-12-09T05:53:37.918Z,2.49
2022-12-09T05:56:06.653Z,2.52
2022-12-09T05:58:35.150Z,2.50
2022-12-09T06:01:09.495Z,2.49
2022-12-09T06:03:38.829Z,2.41
2022-12-09T06:06:08.478Z,2.44
2022-12-09T06:08:37.058Z,2.44
2022-12-09T06:11:06.566Z,2.47
2022-12-09T06:13:34.741Z,2.50
2022-12-09T06:16:05.329Z,2.54
2022-12-09T06:18:35.349Z,2.46
2022-12-09T06:21:07.443Z,2.56
2022-12-09T06:23:36.030Z,2.47
2022-12-09T06:26:04.978Z,2.51
2022-12-09T06:28:33.405Z,2.51
2022-12-09T06:31:01.824Z,2.40
2022-12-09T06:33:53.690Z,2.44
2022-12-09T06:36:19.758Z,2.34
2022-12-09T06:38:47.818Z,2.29
2022-12-09T06:41:17.134Z,2.32
2022-12-09T06:43:45.434Z,2.38
2022-12-09T06:46:14.647Z,2.35
2022-12-09T06:48:43.126Z,2.36
2022-12-09T06:51:12.087Z,2.32
2022-12-09T06:53:41.713Z,2.29
2022-12-09T06:56:13.200Z,2.27
2022-12-09T06:58:42.986Z,2.22
2022-12-09T07:01:14.077Z,2.10
2022-12-09T07:03:43.906Z,2.08
2022-12-09T07:06:22.152Z,2.04
2022-12-09T07:08:52.521Z,1.92
2022-12-09T07:11:20.979Z,1.87
2022-12-09T07:13:49.184Z,1.68
2022-12-09T07:16:17.792Z,1.71
2022-12-09T07:18:46.136Z,1.61
2022-12-09T07:21:16.312Z,1.70
2022-12-09T07:23:44.782Z,1.62
2022-12-09T07:26:14.961Z,1.62
2022-12-09T07:28:44.256Z,1.51
2022-12-09T07:31:19.358Z,1.42
2022-12-09T07:33:47.675Z,1.45
2022-12-09T07:36:20.657Z,1.43
2022-12-09T07:38:49.794Z,1.52
2022-12-09T07:41:19.719Z,1.49
2022-12-09T07:43:48.906Z,1.45
2022-12-09T07:46:19.864Z,1.40
2022-12-09T07:48:48.562Z,1.32
2022-12-09T07:51:18.510Z,1.30
2022-12-09T07:53:48.758Z,1.32
2022-12-09T07:56:18.499Z,1.32
2022-12-09T07:58:51.302Z,1.29
2022-12-09T08:01:21.769Z,1.35
2022-12-09T08:03:50.600Z,1.25
2022-12-09T08:06:21.538Z,1.22
2022-12-09T08:08:50.623Z,1.35
2022-12-09T08:11:21.580Z,1.36
2022-12-09T08:13:51.736Z,1.38
2022-12-09T08:16:21.635Z,1.36
2022-12-09T08:18:51.609Z,1.43
2022-12-09T08:21:22.612Z,1.47
2022-12-09T08:23:52.164Z,1.44
2022-12-09T08:26:22.367Z,1.46
2022-12-09T08:28:52.430Z,1.47
2022-12-09T08:31:22.513Z,1.66
2022-12-09T08:33:51.485Z,1.66
2022-12-09T08:36:21.861Z,1.72
2022-12-09T08:38:51.000Z,1.72
2022-12-09T08:41:20.805Z,1.74
2022-12-09T08:43:49.259Z,1.77
2022-12-09T08:46:18.926Z,1.82
2022-12-09T08:48:47.327Z,1.87
2022-12-09T08:51:15.786Z,1.99
2022-12-09T08:53:43.782Z,2.04
2022-12-09T08:56:13.808Z,2.03
2022-12-09T08:58:43.126Z,2.17
2022-12-09T09:01:16.507Z,2.27
2022-12-09T09:03:47.032Z,2.23
2022-12-09T09:06:16.455Z,2.34
2022-12-09T09:08:44.964Z,2.44
2022-12-09T09:11:15.236Z,2.46
2022-12-09T09:13:45.158Z,2.57
2022-12-09T09:16:15.712Z,2.63
2022-12-09T09:18:45.819Z,2.70
2022-12-09T09:21:16.285Z,2.74
2022-12-09T09:23:45.560Z,2.78
2022-12-09T09:26:15.214Z,2.76
2022-12-09T09:28:44.007Z,2.78
2022-12-09T09:31:14.320Z,2.84
2022-12-09T09:33:42.736Z,2.89
2022-12-09T09:36:15.017Z,2.95
2022-12-09T09:38:43.248Z,2.92
2022-12-09T09:41:21.791Z,2.90
2022-12-09T09:43:51.140Z,2.98
2022-12-09T09:46:29.361Z,2.87
2022-12-09T09:48:59.055Z,2.93
2022-12-09T09:51:29.856Z,2.97
2022-12-09T09:53:59.858Z,3.13
2022-12-09T09:56:37.592Z,2.97
2022-12-09T09:59:20.464Z,2.95
2022-12-09T10:01:58.683Z,3.17
2022-12-09T10:04:35.648Z,2.87
2022-12-09T10:07:17.063Z,3.07
2022-12-09T10:09:53.671Z,3.00
2022-12-09T10:12:29.300Z,3.19
2022-12-09T10:14:59.324Z,3.28
2022-12-09T10:17:34.157Z,3.32
2022-12-09T10:20:08.408Z,2.98
2022-12-09T10:22:43.969Z,3.08
2022-12-09T10:25:19.662Z,3.05
2022-12-09T10:27:55.329Z,3.07
2022-12-09T10:30:23.653Z,3.13
2022-12-09T10:32:54.481Z,3.26
2022-12-09T10:35:24.852Z,3.13
2022-12-09T10:37:57.232Z,3.28
2022-12-09T10:40:37.024Z,3.22
2022-12-09T10:43:37.765Z,3.30
2022-12-09T10:46:19.192Z,3.26
2022-12-09T10:48:56.281Z,3.42
2022-12-09T10:51:28.011Z,3.42
2022-12-09T10:54:01.193Z,3.12
2022-12-09T10:56:32.338Z,3.38
2022-12-09T10:59:12.782Z,3.39
2022-12-09T11:01:51.761Z,3.44
2022-12-09T11:04:25.658Z,3.53
2022-12-09T11:06:59.712Z,3.43
2022-12-09T11:09:32.166Z,3.51
2022-12-09T11:12:02.023Z,3.57
2022-12-09T11:14:35.814Z,3.43
2022-12-09T11:17:15.758Z,3.44
2022-12-09T11:19:45.571Z,3.70
2022-12-09T11:22:22.269Z,3.62
2022-12-09T11:24:56.721Z,3.75
2022-12-09T11:27:28.370Z,3.32
2022-12-09T11:30:13.912Z,3.60
2022-12-09T11:32:59.756Z,3.40
2022-12-09T11:35:37.548Z,3.51
2022-12-09T11:38:17.512Z,3.67
2022-12-09T11:41:03.391Z,3.63
2022-12-09T11:43:39.220Z,3.76
2022-12-09T11:46:18.760Z,3.50
2022-12-09T11:48:53.242Z,3.76
2022-12-09T11:51:27.746Z,3.94
2022-12-09T11:54:03.706Z,4.13
2022-12-09T11:56:35.775Z,4.11
2022-12-09T11:59:10.381Z,4.13
2022-12-09T12:01:48.059Z,3.93
2022-12-09T12:04:19.547Z,3.87
2022-12-09T12:06:49.724Z,4.00
2022-12-09T12:09:24.612Z,3.87
2022-12-09T12:12:03.637Z,3.94
2022-12-09T12:14:32.068Z,4.13
2022-12-09T12:17:08.559Z,4.00
2022-12-09T12:19:40.053Z,3.70
2022-12-09T12:22:26.782Z,3.64
2022-12-09T12:25:07.302Z,3.77
2022-12-09T12:27:54.568Z,3.88
2022-12-09T12:30:25.212Z,3.83
2022-12-09T12:35:59.998Z,3.75
2022-12-09T12:38:40.898Z,3.81
2022-12-09T12:41:15.097Z,3.83
2022-12-09T12:44:18.463Z,3.85
2022-12-09T12:46:55.825Z,3.88
2022-12-09T12:49:41.904Z,3.93
2022-12-09T12:55:23.090Z,3.75
2022-12-09T12:57:59.479Z,3.87
2022-12-09T13:00:41.629Z,4.12
2022-12-09T13:03:21.032Z,3.97
2022-12-09T13:05:51.913Z,3.95
2022-12-09T13:08:27.956Z,3.77
2022-12-09T13:10:58.784Z,3.95
2022-12-09T13:13:32.194Z,4.02
2022-12-09T13:16:10.701Z,4.11
2022-12-09T13:18:40.368Z,3.86
2022-12-09T13:21:09.168Z,3.86
2022-12-09T13:23:53.527Z,3.70
2022-12-09T13:26:28.016Z,3.86
2022-12-09T13:29:02.777Z,3.78
2022-12-09T13:31:35.376Z,3.82
2022-12-09T13:34:18.664Z,3.73
2022-12-09T13:36:48.803Z,3.73
2022-12-09T13:39:46.432Z,3.55
2022-12-09T13:43:02.731Z,3.64
2022-12-09T13:45:35.454Z,3.54
2022-12-09T13:48:27.792Z,3.43
2022-12-09T13:50:59.584Z,3.41
2022-12-09T13:53:32.567Z,3.40
2022-12-09T13:56:03.561Z,3.33
2022-12-09T13:59:01.585Z,3.25
2022-12-09T14:01:36.069Z,3.38
2022-12-09T14:04:14.404Z,3.44
2022-12-09T14:06:55.721Z,3.39
2022-12-09T14:09:36.842Z,3.50
2022-12-09T14:12:06.365Z,3.52
2022-12-09T14:15:01.452Z,3.54
2022-12-09T14:18:01.429Z,3.44
2022-12-09T14:20:37.201Z,3.17
2022-12-09T14:23:18.996Z,3.42
2022-12-09T14:26:02.775Z,3.39
2022-12-09T14:28:41.724Z,3.46
2022-12-09T14:31:10.093Z,3.38
2022-12-09T14:33:40.261Z,3.26
2022-12-09T14:36:24.178Z,3.16
2022-12-09T14:39:23.174Z,3.24
2022-12-09T14:41:54.237Z,3.13
2022-12-09T14:44:31.227Z,3.10
2022-12-09T14:47:15.453Z,3.15
2022-12-09T14:49:49.217Z,3.14
2022-12-09T14:52:26.195Z,3.13
2022-12-09T14:54:57.222Z,3.09
2022-12-09T14:57:28.617Z,3.07
2022-12-09T14:59:58.084Z,2.87
2022-12-09T15:02:29.764Z,2.95
2022-12-09T15:04:59.986Z,2.85
2022-12-09T15:07:31.373Z,2.84
2022-12-09T15:10:00.809Z,2.72
2022-12-09T15:12:32.513Z,2.67
2022-12-09T15:15:06.094Z,2.73
2022-12-09T15:17:43.275Z,2.61
2022-12-09T15:20:22.967Z,2.63
2022-12-09T15:22:54.592Z,2.48
2022-12-09T15:25:24.367Z,2.44
2022-12-09T15:28:00.711Z,2.39
2022-12-09T15:30:33.001Z,2.38
2022-12-09T15:33:01.433Z,2.28
2022-12-09T15:35:34.529Z,2.24
2022-12-09T15:38:08.173Z,2.17
2022-12-09T15:40:38.202Z,2.11
2022-12-09T15:43:09.796Z,1.97
2022-12-09T15:45:42.839Z,2.02
2022-12-09T15:48:16.034Z,2.01
2022-12-09T15:50:49.436Z,1.93
2022-12-09T15:53:24.221Z,1.82
2022-12-09T15:55:55.083Z,1.86
2022-12-09T15:58:28.036Z,1.76
2022-12-09T16:00:56.454Z,1.68
2022-12-09T16:03:28.231Z,1.72
2022-12-09T16:05:58.744Z,1.66
2022-12-09T16:08:36.054Z,1.72
2022-12-09T16:11:04.812Z,1.68
2022-12-09T16:13:33.156Z,1.67
2022-12-09T16:16:03.046Z,1.56
2022-12-09T16:18:35.848Z,1.52
2022-12-09T16:21:23.992Z,1.51
2022-12-09T16:23:56.576Z,1.49
2022-12-09T16:26:30.582Z,1.45
2022-12-09T16:29:01.290Z,1.38
2022-12-09T16:31:30.320Z,1.41
2022-12-09T16:33:58.886Z,1.33
2022-12-09T16:36:29.129Z,1.26
2022-12-09T16:39:42.875Z,1.17
2022-12-09T16:42:23.667Z,1.15
2022-12-09T16:44:51.709Z,1.03
2022-12-09T16:47:24.239Z,1.00
2022-12-09T16:49:52.727Z,1.11
2022-12-09T16:52:24.260Z,1.12
2022-12-09T16:54:52.745Z,1.02
2022-12-09T16:57:21.986Z,1.02
2022-12-09T16:59:51.035Z,1.02
2022-12-09T17:02:23.951Z,0.99
2022-12-09T17:04:52.638Z,1.04
2022-12-09T17:07:20.541Z,0.84
2022-12-09T17:09:48.422Z,0.87
2022-12-09T17:12:16.628Z,0.86
2022-12-09T17:14:46.096Z,0.83
2022-12-09T17:17:14.108Z,0.89
2022-12-09T17:19:42.974Z,0.93
2022-12-09T17:22:11.916Z,1.00
2022-12-09T17:24:39.953Z,0.97
2022-12-09T17:27:07.895Z,1.07
2022-12-09T17:29:36.855Z,1.07
2022-12-09T17:32:06.943Z,1.08
2022-12-09T17:34:34.836Z,1.08
2022-12-09T17:37:02.703Z,1.14
2022-12-09T17:39:30.669Z,1.09
2022-12-09T17:41:58.460Z,1.20
2022-12-09T17:44:26.434Z,1.07
2022-12-09T17:46:54.290Z,1.15
2022-12-09T17:49:23.913Z,1.18
2022-12-09T17:51:51.904Z,1.12
2022-12-09T17:54:19.745Z,1.12
2022-12-09T17:56:47.726Z,1.16
2022-12-09T17:59:17.249Z,1.12
2022-12-09T18:01:47.197Z,1.20
2022-12-09T18:04:16.198Z,1.26
2022-12-09T18:06:46.882Z,1.29
2022-12-09T18:09:16.784Z,1.31
2022-12-09T18:11:45.647Z,1.41
2022-12-09T18:14:13.905Z,1.43
2022-12-09T18:16:41.715Z,1.47
2022-12-09T18:19:15.251Z,1.48
2022-12-09T18:21:44.976Z,1.59
2022-12-09T18:24:13.424Z,1.59
2022-12-09T18:26:42.387Z,1.67
2022-12-09T18:29:11.123Z,1.69
2022-12-09T18:31:39.557Z,1.70
2022-12-09T18:34:07.940Z,1.78
2022-12-09T18:36:35.896Z,1.74
2022-12-09T18:39:05.392Z,1.81
2022-12-09T18:41:33.725Z,1.82
2022-12-09T18:44:05.027Z,1.79
2022-12-09T18:46:35.039Z,1.97
2022-12-09T18:49:05.564Z,1.95
2022-12-09T18:51:33.640Z,1.96
2022-12-09T18:54:02.618Z,1.94
2022-12-09T18:56:33.184Z,2.11
2022-12-09T18:59:09.471Z,2.11
2022-12-09T19:01:40.386Z,2.08
2022-12-09T19:04:12.557Z,2.04
2022-12-09T19:06:42.056Z,2.03
2022-12-09T19:09:12.398Z,1.86
2022-12-09T19:11:42.942Z,1.87
2022-12-09T19:14:11.474Z,2.03
2022-12-09T19:16:39.953Z,2.01
2022-12-09T19:19:10.305Z,2.03
2022-12-09T19:21:39.037Z,1.94
2022-12-09T19:26:47.642Z,1.77
2022-12-09T19:29:17.823Z,1.90
2022-12-09T19:31:48.299Z,1.81
2022-12-09T19:34:18.470Z,1.76
2022-12-09T19:36:47.942Z,1.97
2022-12-09T19:39:17.065Z,1.94
2022-12-09T19:41:47.157Z,1.99
2022-12-09T19:44:31.130Z,1.93
2022-12-09T19:47:05.397Z,2.03
2022-12-09T19:49:33.265Z,1.89
2022-12-09T19:52:01.212Z,1.94
2022-12-09T19:54:29.830Z,1.88
2022-12-09T19:56:59.468Z,1.98
2022-12-09T19:59:29.032Z,1.87
2022-12-09T20:01:57.106Z,1.92
2022-12-09T20:07:16.767Z,1.92
2022-12-09T20:09:44.740Z,1.79
2022-12-09T20:12:14.106Z,1.82
2022-12-09T20:14:43.067Z,1.83
2022-12-09T20:17:10.901Z,1.77
2022-12-09T20:19:38.873Z,1.81
2022-12-09T20:22:06.823Z,1.71
2022-12-09T20:24:34.962Z,1.81
2022-12-09T20:27:02.902Z,1.78
2022-12-09T20:29:37.338Z,1.72
2022-12-09T20:32:06.554Z,1.65
2022-12-09T20:34:34.526Z,1.69
2022-12-09T20:37:02.461Z,1.68
2022-12-09T20:39:30.429Z,1.68
2022-12-09T20:41:59.405Z,1.67
2022-12-09T20:44:27.596Z,1.61
2022-12-09T20:46:57.046Z,1.55
2022-12-09T20:49:26.623Z,1.48
2022-12-09T20:51:55.081Z,1.48
2022-12-09T20:54:23.328Z,1.43
2022-12-09T20:56:51.426Z,1.33
2022-12-09T20:59:19.389Z,1.34
2022-12-09T21:01:47.403Z,1.31
2022-12-09T21:04:17.926Z,1.32
2022-12-09T21:06:45.802Z,1.24
2022-12-09T21:09:17.578Z,1.29
2022-12-09T21:11:46.208Z,1.25
2022-12-09T21:14:14.767Z,1.20
2022-12-09T21:16:46.853Z,1.26
2022-12-09T21:19:20.026Z,1.32
2022-12-09T21:21:48.437Z,1.34
2022-12-09T21:24:16.905Z,1.23
2022-12-09T21:26:46.301Z,1.24
2022-12-09T21:29:15.108Z,1.17
2022-12-09T21:31:44.264Z,1.27
2022-12-09T21:34:12.568Z,1.31
2022-12-09T21:36:45.048Z,1.23
2022-12-09T21:39:14.340Z,1.24
2022-12-09T21:41:43.534Z,1.14
2022-12-09T21:44:15.741Z,1.20
2022-12-09T21:46:45.117Z,1.02
2022-12-09T21:49:14.683Z,1.13
2022-12-09T21:51:44.572Z,1.10
2022-12-09T21:54:13.597Z,0.96
2022-12-09T21:56:41.843Z,1.01
2022-12-09T21:59:12.152Z,0.98
2022-12-09T22:01:42.709Z,1.01
2022-12-09T22:04:13.077Z,1.00
2022-12-09T22:06:41.699Z,1.05
2022-12-09T22:09:13.564Z,1.10
2022-12-09T22:11:45.073Z,1.11
2022-12-09T22:14:13.270Z,1.10
2022-12-09T22:16:42.841Z,1.08
2022-12-09T22:19:15.562Z,1.07
2022-12-09T22:21:43.596Z,1.06
2022-12-09T22:24:14.551Z,1.08
2022-12-09T22:26:44.392Z,1.13
2022-12-09T22:29:13.863Z,1.06
2022-12-09T22:31:42.745Z,1.14
2022-12-09T22:34:13.346Z,1.06
2022-12-09T22:36:42.040Z,1.01
2022-12-09T22:39:17.921Z,1.09
2022-12-09T22:41:47.259Z,1.09
2022-12-09T22:44:18.382Z,1.00
2022-12-09T22:46:47.353Z,1.03
2022-12-09T22:49:16.564Z,1.02
2022-12-09T22:51:45.209Z,1.05
2022-12-09T22:54:15.239Z,1.11
2022-12-09T22:56:43.831Z,1.00
2022-12-09T22:59:12.936Z,1.05
2022-12-09T23:01:40.833Z,0.97
2022-12-09T23:04:09.215Z,0.99
2022-12-09T23:06:39.299Z,0.93
2022-12-09T23:09:08.698Z,0.99
2022-12-09T23:11:38.480Z,0.91
2022-12-09T23:14:06.782Z,0.94
2022-12-09T23:16:34.770Z,0.91
2022-12-09T23:19:03.448Z,0.91
2022-12-09T23:21:34.017Z,0.87
2022-12-09T23:24:07.586Z,0.88
2022-12-09T23:26:39.332Z,0.98
2022-12-09T23:29:11.997Z,0.88
2022-12-09T23:31:40.642Z,0.92
2022-12-09T23:34:09.992Z,0.87
2022-12-09T23:36:40.190Z,0.76
2022-12-09T23:39:11.036Z,0.76
2022-12-09T23:41:41.024Z,0.78
2022-12-09T23:44:10.943Z,0.70
2022-12-09T23:46:40.124Z,0.68
2022-12-09T23:49:08.616Z,0.64
2022-12-09T23:51:39.618Z,0.65
2022-12-09T23:54:09.410Z,0.55
2022-12-09T23:56:43.931Z,0.50
2022-12-09T23:59:14.541Z,0.45
